createdAt,value
2023-03-16T00:04:52.288Z,428.93
2023-03-16T00:10:24.296Z,428.93
2023-03-16T00:15:56.666Z,429.11
2023-03-16T00:21:28.915Z,429.28
2023-03-16T00:27:01.082Z,429.28
2023-03-16T00:32:33.285Z,429.37
2023-03-16T00:38:05.600Z,429.28
2023-03-16T00:43:37.683Z,429.28
2023-03-16T00:49:10.074Z,429.11
2023-03-16T00:54:42.471Z,429.11
2023-03-16T01:00:14.813Z,429.28
2023-03-16T01:05:47.000Z,429.54
2023-03-16T01:11:19.213Z,429.54
2023-03-16T01:16:51.534Z,429.54
2023-03-16T01:22:23.943Z,429.72
2023-03-16T01:27:55.960Z,429.54
2023-03-16T01:33:28.212Z,429.54
2023-03-16T01:39:00.508Z,429.72
2023-03-16T01:44:32.996Z,429.89
2023-03-16T01:50:05.086Z,430.41
2023-03-16T01:55:37.369Z,430.93
2023-03-16T02:01:09.669Z,430.93
2023-03-16T02:06:41.849Z,431.10
2023-03-16T02:12:13.865Z,431.28
2023-03-16T02:17:45.608Z,431.45
2023-03-16T02:23:18.132Z,431.28
2023-03-16T02:25:30.264Z,430.93
2023-03-16T02:31:01.587Z,430.93
2023-03-16T02:36:33.346Z,431.10
2023-03-16T02:42:05.308Z,431.10
2023-03-16T02:47:37.413Z,431.28
2023-03-16T02:53:09.867Z,431.80
2023-03-16T02:58:41.965Z,431.63
2023-03-16T03:04:13.502Z,431.97
2023-03-16T03:09:45.651Z,431.97
2023-03-16T03:15:18.006Z,432.32
2023-03-16T03:20:49.865Z,431.97
2023-03-16T03:26:21.588Z,431.97
2023-03-16T03:31:53.447Z,432.15
2023-03-16T03:37:25.748Z,432.15
2023-03-16T03:42:57.971Z,432.15
2023-03-16T03:48:30.251Z,432.49
2023-03-16T03:54:02.359Z,432.67
2023-03-16T03:59:34.397Z,433.01
2023-03-16T04:05:06.749Z,433.19
2023-03-16T04:10:38.891Z,433.19
2023-03-16T04:16:11.515Z,433.53
2023-03-16T04:21:43.462Z,433.53
2023-03-16T04:27:15.226Z,433.19
2023-03-16T04:32:47.573Z,432.84
2023-03-16T04:38:19.852Z,432.67
2023-03-16T04:43:52.138Z,432.84
2023-03-16T04:49:24.707Z,433.53
2023-03-16T04:54:56.690Z,433.97
2023-03-16T05:00:29.098Z,433.97
2023-03-16T05:06:01.349Z,434.49
2023-03-16T05:11:32.975Z,434.66
2023-03-16T05:17:05.294Z,435.53
2023-03-16T05:22:37.424Z,435.88
2023-03-16T05:28:09.093Z,435.71
2023-03-16T05:33:41.140Z,436.05
2023-03-16T05:39:13.327Z,435.88
2023-03-16T05:44:45.687Z,436.05
2023-03-16T05:50:17.794Z,436.05
2023-03-16T05:55:49.661Z,435.71
2023-03-16T06:01:21.862Z,435.71
2023-03-16T06:06:54.328Z,435.71
2023-03-16T06:12:26.358Z,435.53
2023-03-16T06:18:04.078Z,435.36
2023-03-16T06:23:35.818Z,435.18
2023-03-16T06:29:07.648Z,434.84
2023-03-16T06:34:40.257Z,434.84
2023-03-16T06:40:12.209Z,434.84
2023-03-16T06:45:44.135Z,434.49
2023-03-16T06:51:17.606Z,434.84
2023-03-16T06:56:49.861Z,434.84
2023-03-16T07:02:22.167Z,435.01
2023-03-16T07:07:54.218Z,435.36
2023-03-16T07:13:26.174Z,435.88
2023-03-16T07:18:58.223Z,435.88
2023-03-16T07:24:30.225Z,436.05
2023-03-16T07:30:02.242Z,436.23
2023-03-16T07:35:34.239Z,436.05
2023-03-16T07:41:06.066Z,436.05
2023-03-16T07:46:37.680Z,435.88
2023-03-16T07:52:09.817Z,435.36
2023-03-16T07:57:41.620Z,435.01
2023-03-16T08:03:13.375Z,434.66
2023-03-16T08:08:45.087Z,434.14
2023-03-16T08:14:16.826Z,433.71
2023-03-16T08:19:48.458Z,433.01
2023-03-16T08:25:20.817Z,432.84
2023-03-16T08:30:53.093Z,432.32
2023-03-16T08:36:24.929Z,432.32
2023-03-16T08:41:56.901Z,432.32
2023-03-16T08:47:29.164Z,432.15
2023-03-16T08:53:01.456Z,432.67
2023-03-16T08:58:33.951Z,432.32
2023-03-16T09:04:06.268Z,432.67
2023-03-16T09:09:38.046Z,433.19
2023-03-16T09:15:09.861Z,433.53
2023-03-16T09:20:41.636Z,433.71
2023-03-16T09:26:13.800Z,433.53
2023-03-16T09:31:45.918Z,433.19
2023-03-16T09:37:17.653Z,432.84
2023-03-16T09:43:12.856Z,433.19
2023-03-16T09:48:44.759Z,433.36
2023-03-16T09:54:16.542Z,433.36
2023-03-16T09:59:48.122Z,433.19
2023-03-16T10:05:20.150Z,433.80
2023-03-16T10:10:51.905Z,433.80
2023-03-16T10:16:23.881Z,433.80
2023-03-16T10:21:55.908Z,434.14
2023-03-16T10:27:27.742Z,434.49
2023-03-16T10:32:59.617Z,435.18
2023-03-16T10:38:31.915Z,435.36
2023-03-16T10:44:04.246Z,436.05
2023-03-16T10:49:36.357Z,436.57
2023-03-16T10:55:08.350Z,436.92
2023-03-16T11:00:40.326Z,437.62
2023-03-16T11:06:12.074Z,438.05
2023-03-16T11:11:44.110Z,439.27
2023-03-16T11:17:21.921Z,439.61
2023-03-16T11:22:53.610Z,440.13
2023-03-16T11:25:17.828Z,440.66
2023-03-16T11:30:49.567Z,441.00
2023-03-16T11:36:21.566Z,441.00
2023-03-16T11:41:53.844Z,441.35
2023-03-16T11:47:25.776Z,441.70
2023-03-16T11:52:57.376Z,442.05
2023-03-16T11:58:29.357Z,442.57
2023-03-16T12:06:22.866Z,444.39
2023-03-16T12:11:46.877Z,444.74
2023-03-16T12:17:18.805Z,445.26
2023-03-16T12:22:50.711Z,445.96
2023-03-16T12:28:22.502Z,446.30
2023-03-16T12:33:54.272Z,446.65
2023-03-16T12:39:25.928Z,446.83
2023-03-16T12:44:57.854Z,447.26
2023-03-16T12:50:29.758Z,447.26
2023-03-16T12:56:01.521Z,447.78
2023-03-16T13:01:33.432Z,448.30
2023-03-16T13:07:05.599Z,449.00
2023-03-16T13:12:37.261Z,449.52
2023-03-16T13:18:09.347Z,449.87
2023-03-16T13:23:41.299Z,449.87
2023-03-16T13:29:13.092Z,450.39
2023-03-16T13:34:45.136Z,450.74
2023-03-16T13:40:17.067Z,450.91
2023-03-16T13:45:48.793Z,451.26
2023-03-16T13:51:21.190Z,451.52
2023-03-16T13:56:53.039Z,452.04
2023-03-16T14:02:24.776Z,452.56
2023-03-16T14:07:56.516Z,452.56
2023-03-16T14:13:28.291Z,453.09
2023-03-16T14:18:59.898Z,453.61
2023-03-16T14:24:31.262Z,453.78
2023-03-16T14:30:03.098Z,453.43
2023-03-16T14:35:34.704Z,454.13
2023-03-16T14:41:06.341Z,454.48
2023-03-16T14:46:38.283Z,454.83
2023-03-16T14:52:10.265Z,455.17
2023-03-16T14:57:42.002Z,455.52
2023-03-16T15:03:13.845Z,455.52
2023-03-16T15:08:45.668Z,455.52
2023-03-16T15:14:17.302Z,456.13
2023-03-16T15:19:49.260Z,456.65
2023-03-16T15:25:21.150Z,456.30
2023-03-16T15:30:53.085Z,456.48
2023-03-16T15:36:24.638Z,456.83
2023-03-16T15:41:56.389Z,457.17
2023-03-16T15:47:28.416Z,457.52
2023-03-16T15:53:00.752Z,458.39
2023-03-16T15:58:32.774Z,459.09
2023-03-16T16:04:04.890Z,459.44
2023-03-16T16:09:36.611Z,459.79
2023-03-16T16:15:08.392Z,460.39
2023-03-16T16:20:40.163Z,460.74
2023-03-16T16:26:12.183Z,460.74
2023-03-16T16:31:43.641Z,460.39
2023-03-16T16:37:15.556Z,460.22
2023-03-16T16:42:47.347Z,459.61
2023-03-16T16:48:19.283Z,459.26
2023-03-16T16:53:51.120Z,458.74
2023-03-16T16:59:22.721Z,458.92
2023-03-16T17:04:54.671Z,458.74
2023-03-16T17:10:26.407Z,458.92
2023-03-16T17:15:58.192Z,458.92
2023-03-16T17:21:30.495Z,458.39
2023-03-16T17:27:02.820Z,458.22
2023-03-16T17:32:34.872Z,457.70
2023-03-16T17:38:06.728Z,457.87
2023-03-16T17:43:38.707Z,458.22
2023-03-16T17:49:10.831Z,458.39
2023-03-16T17:54:42.982Z,458.39
2023-03-16T18:00:14.710Z,458.39
2023-03-16T18:05:46.795Z,458.39
2023-03-16T18:11:18.914Z,458.92
2023-03-16T18:16:51.194Z,458.74
2023-03-16T18:22:22.920Z,458.57
2023-03-16T18:28:18.065Z,457.87
2023-03-16T18:33:50.133Z,458.22
2023-03-16T18:39:21.857Z,458.57
2023-03-16T18:44:54.268Z,458.57
2023-03-16T18:50:26.316Z,459.09
2023-03-16T18:55:58.161Z,458.74
2023-03-16T19:01:30.642Z,458.92
2023-03-16T19:07:03.181Z,459.09
2023-03-16T19:12:34.890Z,459.26
2023-03-16T19:18:07.023Z,459.09
2023-03-16T19:23:39.365Z,458.92
2023-03-16T19:29:11.415Z,459.26
2023-03-16T19:34:43.579Z,459.26
2023-03-16T19:40:15.406Z,459.26
2023-03-16T19:45:47.234Z,459.44
2023-03-16T19:51:19.484Z,459.44
2023-03-16T19:56:51.499Z,459.09
2023-03-16T20:02:23.567Z,459.44
2023-03-16T20:07:55.361Z,459.61
2023-03-16T20:13:26.644Z,459.96
2023-03-16T20:18:58.702Z,460.39
2023-03-16T20:24:29.851Z,460.22
2023-03-16T20:30:01.632Z,461.44
2023-03-16T20:35:33.314Z,461.79
2023-03-16T20:41:05.228Z,461.96
2023-03-16T20:46:36.797Z,462.31
2023-03-16T20:52:08.909Z,462.31
2023-03-16T20:57:41.083Z,462.66
2023-03-16T21:03:12.367Z,462.66
2023-03-16T21:08:43.805Z,462.83
2023-03-16T21:14:15.588Z,462.48
2023-03-16T21:19:47.186Z,462.66
2023-03-16T21:25:19.067Z,463.18
2023-03-16T21:30:50.975Z,463.18
2023-03-16T21:36:23.430Z,463.53
2023-03-16T21:41:54.894Z,463.53
2023-03-16T21:47:26.948Z,464.05
2023-03-16T21:52:58.780Z,464.75
2023-03-16T21:58:30.579Z,464.83
2023-03-16T22:04:02.088Z,465.01
2023-03-16T22:09:34.226Z,465.36
2023-03-16T22:15:06.241Z,465.01
2023-03-16T22:20:38.321Z,465.18
2023-03-16T22:26:10.347Z,465.53
2023-03-16T22:31:42.033Z,465.53
2023-03-16T22:37:13.828Z,465.18
2023-03-16T22:42:45.786Z,465.01
2023-03-16T22:48:17.567Z,465.53
2023-03-16T22:53:49.162Z,466.05
2023-03-16T22:59:20.982Z,465.88
2023-03-16T23:04:52.829Z,466.23
2023-03-16T23:10:24.823Z,466.40
2023-03-16T23:15:56.354Z,466.40
2023-03-16T23:21:28.151Z,466.75
2023-03-16T23:26:59.754Z,467.10
2023-03-16T23:32:31.798Z,467.62
2023-03-16T23:38:03.734Z,467.97
2023-03-16T23:43:35.933Z,468.32
2023-03-16T23:49:07.402Z,468.14
2023-03-16T23:54:39.736Z,468.67
